createdAt,value
2019-04-06T00:00:23.955Z,7.10
2019-04-06T00:01:24.198Z,7.15
2019-04-06T00:02:24.407Z,7.11
2019-04-06T00:03:24.610Z,7.19
2019-04-06T00:04:24.830Z,7.15
2019-04-06T00:05:24.992Z,7.10
2019-04-06T00:06:25.109Z,7.13
2019-04-06T00:07:25.340Z,7.11
2019-04-06T00:08:25.575Z,7.13
2019-04-06T00:09:25.819Z,7.18
2019-04-06T00:10:26.085Z,7.11
2019-04-06T00:11:26.188Z,7.21
2019-04-06T00:12:26.403Z,7.22
2019-04-06T00:13:26.609Z,7.19
2019-04-06T00:14:26.819Z,7.13
2019-04-06T00:15:27.074Z,7.13
2019-04-06T00:16:27.189Z,7.10
2019-04-06T00:17:27.342Z,7.21
2019-04-06T00:18:27.576Z,7.13
2019-04-06T00:19:27.709Z,7.15
2019-04-06T00:20:27.980Z,7.21
2019-04-06T00:21:28.110Z,7.28
2019-04-06T00:22:28.216Z,7.13
2019-04-06T00:23:28.431Z,7.15
2019-04-06T00:24:28.676Z,7.18
2019-04-06T00:25:28.890Z,7.04
2019-04-06T00:26:29.111Z,7.13
2019-04-06T00:27:29.332Z,7.13
2019-04-06T00:28:29.561Z,7.08
2019-04-06T00:29:29.760Z,7.18
2019-04-06T00:30:29.974Z,7.11
2019-04-06T00:31:30.175Z,7.21
2019-04-06T00:32:30.410Z,7.13
2019-04-06T00:33:30.647Z,7.18
2019-04-06T00:34:30.743Z,7.18
2019-04-06T00:35:30.969Z,7.21
2019-04-06T00:36:31.155Z,7.18
2019-04-06T00:37:31.352Z,7.19
2019-04-06T00:38:33.795Z,7.19
2019-04-06T00:39:32.776Z,7.23
2019-04-06T00:40:31.959Z,7.11
2019-04-06T00:41:32.172Z,7.23
2019-04-06T00:42:32.371Z,7.11
2019-04-06T00:43:32.603Z,7.18
2019-04-06T00:44:32.807Z,7.11
2019-04-06T00:45:34.012Z,7.18
2019-04-06T00:46:33.180Z,7.13
2019-04-06T00:47:33.368Z,7.19
2019-04-06T00:48:33.637Z,7.29
2019-04-06T00:49:33.713Z,7.26
2019-04-06T00:50:34.010Z,7.22
2019-04-06T00:51:34.085Z,7.19
2019-04-06T00:52:34.329Z,7.21
2019-04-06T00:53:34.583Z,7.23
2019-04-06T00:54:34.700Z,7.10
2019-04-06T00:55:34.952Z,7.18
2019-04-06T00:56:35.061Z,7.14
2019-04-06T00:57:35.285Z,7.18
2019-04-06T00:58:35.434Z,7.23
2019-04-06T00:59:35.672Z,7.14
2019-04-06T01:00:35.914Z,7.18
2019-04-06T01:01:36.099Z,7.19
2019-04-06T01:02:36.216Z,7.14
2019-04-06T01:03:36.365Z,7.15
2019-04-06T01:04:36.609Z,7.21
2019-04-06T01:05:36.785Z,7.19
2019-04-06T01:06:36.952Z,7.15
2019-04-06T01:07:37.100Z,7.19
2019-04-06T01:08:37.274Z,7.19
2019-04-06T01:09:37.447Z,7.14
2019-04-06T01:10:37.621Z,7.15
2019-04-06T01:11:37.784Z,7.19
2019-04-06T01:12:37.941Z,7.18
2019-04-06T01:13:38.081Z,7.21
2019-04-06T01:14:38.208Z,7.13
2019-04-06T01:15:39.339Z,7.19
2019-04-06T01:16:38.548Z,7.25
2019-04-06T01:17:38.709Z,7.21
2019-04-06T01:18:38.813Z,7.19
2019-04-06T01:19:38.942Z,7.28
2019-04-06T01:20:39.065Z,7.19
2019-04-06T01:21:39.294Z,7.21
2019-04-06T01:22:39.493Z,7.26
2019-04-06T01:23:39.615Z,7.31
2019-04-06T01:24:39.747Z,7.15
2019-04-06T01:25:39.869Z,7.32
2019-04-06T01:26:39.991Z,7.32
2019-04-06T01:27:40.291Z,7.21
2019-04-06T01:28:40.299Z,7.18
2019-04-06T01:29:40.533Z,7.29
2019-04-06T01:30:40.786Z,7.19
2019-04-06T01:31:40.895Z,7.21
2019-04-06T01:32:41.141Z,7.25
2019-04-06T01:33:41.388Z,7.15
2019-04-06T01:34:41.542Z,7.31
2019-04-06T01:35:41.714Z,7.21
2019-04-06T01:36:41.790Z,7.19
2019-04-06T01:37:41.971Z,7.23
2019-04-06T01:38:42.075Z,7.39
2019-04-06T01:39:42.270Z,7.28
2019-04-06T01:40:42.424Z,7.32
2019-04-06T01:41:42.618Z,7.33
2019-04-06T01:42:42.717Z,7.33
2019-04-06T01:43:42.953Z,7.37
2019-04-06T01:44:43.207Z,7.37
2019-04-06T01:45:43.422Z,7.36
2019-04-06T01:46:43.697Z,7.31
2019-04-06T01:47:43.767Z,7.32
2019-04-06T01:48:44.036Z,7.18
2019-04-06T01:49:44.102Z,7.21
2019-04-06T01:50:44.354Z,7.37
2019-04-06T01:51:44.574Z,7.37
2019-04-06T01:52:44.788Z,7.37
2019-04-06T01:53:45.022Z,7.40
2019-04-06T01:54:45.241Z,7.33
2019-04-06T01:55:45.501Z,7.37
2019-04-06T01:56:45.619Z,7.37
2019-04-06T01:57:45.819Z,7.31
2019-04-06T01:58:46.027Z,7.26
2019-04-06T01:59:46.233Z,7.23
2019-04-06T02:00:46.476Z,7.28
2019-04-06T02:01:46.630Z,7.33
2019-04-06T02:02:46.766Z,7.37
2019-04-06T02:03:46.908Z,7.40
2019-04-06T02:04:47.023Z,7.32
2019-04-06T02:05:47.139Z,7.29
2019-04-06T02:06:47.385Z,7.33
2019-04-06T02:07:47.520Z,7.25
2019-04-06T02:08:47.757Z,7.32
2019-04-06T02:09:47.985Z,7.29
2019-04-06T02:10:48.186Z,7.19
2019-04-06T02:11:48.384Z,7.21
2019-04-06T02:12:48.565Z,7.29
2019-04-06T02:13:48.739Z,7.32
2019-04-06T02:14:48.935Z,7.31
2019-04-06T02:15:49.131Z,7.23
2019-04-06T02:16:49.304Z,7.39
2019-04-06T02:17:49.492Z,7.40
2019-04-06T02:18:49.690Z,7.31
2019-04-06T02:19:49.888Z,7.36
2019-04-06T02:20:50.055Z,7.28
2019-04-06T02:21:50.328Z,7.39
2019-04-06T02:22:50.400Z,7.25
2019-04-06T02:23:50.612Z,7.40
2019-04-06T02:24:50.830Z,7.36
2019-04-06T02:25:51.017Z,7.46
2019-04-06T02:26:51.228Z,7.44
2019-04-06T02:27:51.489Z,7.44
2019-04-06T02:28:52.576Z,7.43
2019-04-06T02:29:51.761Z,7.44
2019-04-06T02:30:52.012Z,7.43
2019-04-06T02:31:52.145Z,7.37
2019-04-06T02:32:52.322Z,7.44
2019-04-06T02:33:52.449Z,7.53
2019-04-06T02:34:52.768Z,7.43
2019-04-06T02:35:53.105Z,7.47
2019-04-06T02:36:53.123Z,7.41
2019-04-06T02:37:53.381Z,7.40
2019-04-06T02:38:53.406Z,7.47
2019-04-06T02:39:53.532Z,7.43
2019-04-06T02:40:53.669Z,7.39
2019-04-06T02:41:53.780Z,7.31
2019-04-06T02:42:54.051Z,7.40
2019-04-06T02:43:54.200Z,7.43
2019-04-06T02:44:54.311Z,7.41
2019-04-06T02:45:54.481Z,7.32
2019-04-06T02:46:54.699Z,7.37
2019-04-06T02:47:54.925Z,7.46
2019-04-06T02:48:56.176Z,7.46
2019-04-06T02:49:55.385Z,7.37
2019-04-06T02:50:55.502Z,7.39
2019-04-06T02:51:55.705Z,7.43
2019-04-06T02:52:55.901Z,7.41
2019-04-06T02:53:56.136Z,7.44
2019-04-06T02:54:56.360Z,7.33
2019-04-06T02:55:56.462Z,7.39
2019-04-06T02:56:56.672Z,7.36
2019-04-06T02:57:56.852Z,7.36
2019-04-06T02:58:57.054Z,7.29
2019-04-06T02:59:57.293Z,7.36
2019-04-06T03:00:57.425Z,7.39
2019-04-06T03:01:57.543Z,7.32
2019-04-06T03:02:57.904Z,7.31
2019-04-06T03:03:57.864Z,7.25
2019-04-06T03:04:58.137Z,7.36
2019-04-06T03:05:58.266Z,7.36
2019-04-06T03:06:58.437Z,7.31
2019-04-06T03:07:58.561Z,7.39
2019-04-06T03:08:58.701Z,7.37
2019-04-06T03:09:58.833Z,7.39
2019-04-06T03:10:58.937Z,7.39
2019-04-06T03:11:59.178Z,7.36
2019-04-06T03:12:59.412Z,7.37
2019-04-06T03:13:59.606Z,7.32
2019-04-06T03:14:59.798Z,7.40
2019-04-06T03:16:00.015Z,7.46
2019-04-06T03:17:00.230Z,7.33
2019-04-06T03:18:00.442Z,7.33
2019-04-06T03:19:00.664Z,7.31
2019-04-06T03:20:00.789Z,7.32
2019-04-06T03:21:00.984Z,7.32
2019-04-06T03:22:01.209Z,7.37
2019-04-06T03:23:01.471Z,7.26
2019-04-06T03:24:01.730Z,7.22
2019-04-06T03:25:01.841Z,7.23
2019-04-06T03:26:02.300Z,7.26
2019-04-06T03:27:02.957Z,7.19
2019-04-06T03:28:03.479Z,7.22
2019-04-06T03:29:02.673Z,7.29
2019-04-06T03:30:02.889Z,7.31
2019-04-06T03:31:03.447Z,7.33
2019-04-06T03:32:03.523Z,7.32
2019-04-06T03:33:03.744Z,7.25
2019-04-06T03:34:03.645Z,7.36
2019-04-06T03:35:03.902Z,7.26
2019-04-06T03:36:04.246Z,7.29
2019-04-06T03:37:04.164Z,7.36
2019-04-06T03:38:04.383Z,7.29
2019-04-06T03:39:04.597Z,7.21
2019-04-06T03:40:04.788Z,7.25
2019-04-06T03:41:05.011Z,7.31
2019-04-06T03:42:05.240Z,7.31
2019-04-06T03:43:05.517Z,7.13
2019-04-06T03:44:05.468Z,7.23
2019-04-06T03:45:05.670Z,7.11
2019-04-06T03:46:06.033Z,7.14
2019-04-06T03:47:06.009Z,7.15
2019-04-06T03:48:06.202Z,7.14
2019-04-06T03:49:06.383Z,7.11
2019-04-06T03:50:06.612Z,7.18
2019-04-06T03:51:06.782Z,7.11
2019-04-06T03:52:06.985Z,7.04
2019-04-06T03:53:07.176Z,7.03
2019-04-06T03:54:07.650Z,7.07
2019-04-06T03:55:07.484Z,6.96
2019-04-06T03:56:07.661Z,6.96
2019-04-06T03:57:14.476Z,6.97
2019-04-06T03:58:09.969Z,6.87
2019-04-06T03:59:08.201Z,6.86
2019-04-06T04:00:08.416Z,6.92
2019-04-06T04:01:08.922Z,6.90
2019-04-06T04:02:08.788Z,6.85
2019-04-06T04:03:08.999Z,6.95
2019-04-06T04:04:09.125Z,6.82
2019-04-06T04:05:09.535Z,6.82
2019-04-06T04:06:09.449Z,6.86
2019-04-06T04:07:09.612Z,6.82
2019-04-06T04:08:09.794Z,6.78
2019-04-06T04:09:09.968Z,6.87
2019-04-06T04:10:10.415Z,6.89
2019-04-06T04:11:10.511Z,6.95
2019-04-06T04:12:10.462Z,6.90
2019-04-06T04:13:10.621Z,6.87
2019-04-06T04:14:10.811Z,6.89
2019-04-06T04:15:10.988Z,6.92
2019-04-06T04:16:11.140Z,6.97
2019-04-06T04:17:11.256Z,6.93
2019-04-06T04:18:11.544Z,7.01
2019-04-06T04:19:11.629Z,6.93
2019-04-06T04:20:11.834Z,6.93
2019-04-06T04:21:11.972Z,7.04
2019-04-06T04:22:12.112Z,7.05
2019-04-06T04:23:12.270Z,7.04
2019-04-06T04:24:12.437Z,7.07
2019-04-06T04:25:12.617Z,7.08
2019-04-06T04:26:13.756Z,7.11
2019-04-06T04:27:12.987Z,6.92
2019-04-06T04:28:13.195Z,7.03
2019-04-06T04:29:13.504Z,6.89
2019-04-06T04:30:15.214Z,7.00
2019-04-06T04:31:14.786Z,7.03
2019-04-06T04:32:13.912Z,7.04
2019-04-06T04:33:14.189Z,7.04
2019-04-06T04:34:14.341Z,6.95
2019-04-06T04:35:14.394Z,6.89
2019-04-06T04:36:14.631Z,6.89
2019-04-06T04:37:14.673Z,6.89
2019-04-06T04:38:15.026Z,6.86
2019-04-06T04:39:15.065Z,6.97
2019-04-06T04:40:15.221Z,6.83
2019-04-06T04:41:15.381Z,6.85
2019-04-06T04:42:15.818Z,6.93
2019-04-06T04:43:15.773Z,7.04
2019-04-06T04:44:16.064Z,6.97
2019-04-06T04:45:16.099Z,7.03
2019-04-06T04:46:16.258Z,7.04
2019-04-06T04:47:16.422Z,7.07
2019-04-06T04:48:16.732Z,7.14
2019-04-06T04:49:16.772Z,7.13
2019-04-06T04:50:16.938Z,7.05
2019-04-06T04:51:17.124Z,7.11
2019-04-06T04:52:17.419Z,7.07
2019-04-06T04:53:17.521Z,7.15
2019-04-06T04:54:17.686Z,7.13
2019-04-06T04:55:17.852Z,7.13
2019-04-06T04:56:18.059Z,7.14
2019-04-06T04:57:18.244Z,7.14
2019-04-06T04:58:18.426Z,7.15
2019-04-06T04:59:18.587Z,7.11
2019-04-06T05:00:18.784Z,7.25
2019-04-06T05:01:18.945Z,7.26
2019-04-06T05:02:19.229Z,7.32
2019-04-06T05:03:19.461Z,7.32
2019-04-06T05:04:19.544Z,7.36
2019-04-06T05:05:19.596Z,7.39
2019-04-06T05:06:19.749Z,7.46
2019-04-06T05:07:19.946Z,7.31
2019-04-06T05:08:20.099Z,7.40
2019-04-06T05:09:20.371Z,7.41
2019-04-06T05:10:20.396Z,7.43
2019-04-06T05:11:20.563Z,7.51
2019-04-06T05:12:20.741Z,7.48
2019-04-06T05:13:20.932Z,7.43
2019-04-06T05:14:21.189Z,7.40
2019-04-06T05:15:21.247Z,7.39
2019-04-06T05:16:21.409Z,7.47
2019-04-06T05:17:21.608Z,7.50
2019-04-06T05:18:22.804Z,7.53
2019-04-06T05:19:21.928Z,7.44
2019-04-06T05:20:23.943Z,7.53
2019-04-06T05:21:22.270Z,7.51
2019-04-06T05:22:22.558Z,7.55
2019-04-06T05:23:22.568Z,7.47
2019-04-06T05:24:22.965Z,7.56
2019-04-06T05:25:22.898Z,7.53
2019-04-06T05:26:23.080Z,7.48
2019-04-06T05:27:23.273Z,7.53
2019-04-06T05:28:23.446Z,7.58
2019-04-06T05:29:23.590Z,7.58
2019-04-06T05:30:23.768Z,7.58
2019-04-06T05:31:23.929Z,7.53
2019-04-06T05:32:24.106Z,7.53
2019-04-06T05:33:24.278Z,7.61
2019-04-06T05:34:24.577Z,7.66
2019-04-06T05:35:24.650Z,7.47
2019-04-06T05:36:24.988Z,7.50
2019-04-06T05:37:25.021Z,7.61
2019-04-06T05:38:25.208Z,7.51
2019-04-06T05:39:25.360Z,7.59
2019-04-06T05:40:25.558Z,7.62
2019-04-06T05:41:25.750Z,7.62
2019-04-06T05:42:25.921Z,7.62
2019-04-06T05:43:26.103Z,7.69
2019-04-06T05:44:26.265Z,7.67
2019-04-06T05:45:26.460Z,7.62
2019-04-06T05:46:26.621Z,7.66
2019-04-06T05:47:26.774Z,7.61
2019-04-06T05:48:26.968Z,7.69
2019-04-06T05:49:27.176Z,7.64
2019-04-06T05:50:27.348Z,7.72
2019-04-06T05:51:27.552Z,7.81
2019-04-06T05:52:27.710Z,7.75
2019-04-06T05:53:27.927Z,7.87
2019-04-06T05:54:28.117Z,7.81
2019-04-06T05:55:28.300Z,7.96
2019-04-06T05:56:28.502Z,7.98
2019-04-06T05:57:31.801Z,7.91
2019-04-06T05:58:28.880Z,7.90
2019-04-06T05:59:29.027Z,7.85
2019-04-06T06:00:29.197Z,8.05
2019-04-06T06:01:29.381Z,7.96
2019-04-06T06:02:29.524Z,7.91
2019-04-06T06:03:29.679Z,8.06
2019-04-06T06:04:29.825Z,8.06
2019-04-06T06:05:29.986Z,8.08
2019-04-06T06:06:30.220Z,8.16
2019-04-06T06:07:30.252Z,8.16
2019-04-06T06:08:30.606Z,8.14
2019-04-06T06:09:31.521Z,8.05
2019-04-06T06:10:30.670Z,8.14
2019-04-06T06:11:30.801Z,8.32
2019-04-06T06:12:31.174Z,8.20
2019-04-06T06:13:31.195Z,8.17
2019-04-06T06:14:31.339Z,8.23
2019-04-06T06:15:31.514Z,8.18
2019-04-06T06:16:31.667Z,8.24
2019-04-06T06:17:32.028Z,8.28
2019-04-06T06:18:32.044Z,8.32
2019-04-06T06:19:32.216Z,8.23
2019-04-06T06:20:32.390Z,8.26
2019-04-06T06:21:32.545Z,8.34
2019-04-06T06:22:32.727Z,8.34
2019-04-06T06:23:32.931Z,8.35
2019-04-06T06:24:34.680Z,8.39
2019-04-06T06:25:34.339Z,8.50
2019-04-06T06:26:33.478Z,8.54
2019-04-06T06:27:33.779Z,8.49
2019-04-06T06:28:33.879Z,8.44
2019-04-06T06:29:34.074Z,8.41
2019-04-06T06:30:34.245Z,8.46
2019-04-06T06:31:34.431Z,8.45
2019-04-06T06:32:34.829Z,8.45
2019-04-06T06:33:34.815Z,8.49
2019-04-06T06:34:35.010Z,8.54
2019-04-06T06:35:35.308Z,8.52
2019-04-06T06:36:35.451Z,8.61
2019-04-06T06:37:35.516Z,8.52
2019-04-06T06:38:35.862Z,8.52
2019-04-06T06:39:36.026Z,8.60
2019-04-06T06:40:35.948Z,8.53
2019-04-06T06:41:36.142Z,8.64
2019-04-06T06:42:36.307Z,8.66
2019-04-06T06:43:36.506Z,8.69
2019-04-06T06:44:36.743Z,8.66
2019-04-06T06:45:36.925Z,8.75
2019-04-06T06:46:36.985Z,8.77
2019-04-06T06:47:37.179Z,8.78
2019-04-06T06:48:37.332Z,8.82
2019-04-06T06:49:37.740Z,8.77
2019-04-06T06:50:37.739Z,8.79
2019-04-06T06:51:37.912Z,8.77
2019-04-06T06:52:39.118Z,8.66
2019-04-06T06:53:38.271Z,8.74
2019-04-06T06:54:38.592Z,8.86
2019-04-06T06:55:38.605Z,8.92
2019-04-06T06:56:38.775Z,8.92
2019-04-06T06:57:38.946Z,8.86
2019-04-06T06:58:39.113Z,8.90
2019-04-06T06:59:39.276Z,9.11
2019-04-06T07:00:39.489Z,9.05
2019-04-06T07:01:39.727Z,9.05
2019-04-06T07:02:39.787Z,9.05
2019-04-06T07:03:39.952Z,9.08
2019-04-06T07:04:40.137Z,9.12
2019-04-06T07:05:40.445Z,9.11
2019-04-06T07:06:40.487Z,9.02
2019-04-06T07:07:40.633Z,9.09
2019-04-06T07:08:40.795Z,9.11
2019-04-06T07:09:41.134Z,8.97
2019-04-06T07:10:41.251Z,9.15
2019-04-06T07:11:41.447Z,9.15
2019-04-06T07:12:41.640Z,9.26
2019-04-06T07:13:41.840Z,9.21
2019-04-06T07:14:41.998Z,9.26
2019-04-06T07:15:43.448Z,9.21
2019-04-06T07:16:43.377Z,9.29
2019-04-06T07:17:42.533Z,9.27
2019-04-06T07:18:42.942Z,9.29
2019-04-06T07:19:42.846Z,9.24
2019-04-06T07:20:43.029Z,9.36
2019-04-06T07:21:43.181Z,9.36
2019-04-06T07:22:43.347Z,9.44
2019-04-06T07:23:43.484Z,9.45
2019-04-06T07:24:43.798Z,9.58
2019-04-06T07:25:43.733Z,9.63
2019-04-06T07:26:43.858Z,9.81
2019-04-06T07:27:45.051Z,9.82
2019-04-06T07:28:44.203Z,9.85
2019-04-06T07:29:44.507Z,9.85
2019-04-06T07:30:44.656Z,9.94
2019-04-06T07:31:44.718Z,10.05
2019-04-06T07:32:44.918Z,10.12
2019-04-06T07:33:45.071Z,10.23
2019-04-06T07:34:45.233Z,10.28
2019-04-06T07:35:45.402Z,10.34
2019-04-06T07:36:45.571Z,10.33
2019-04-06T07:37:45.772Z,10.28
2019-04-06T07:38:46.086Z,10.18
2019-04-06T07:39:46.102Z,10.17
2019-04-06T07:40:46.290Z,10.28
2019-04-06T07:41:47.473Z,10.31
2019-04-06T07:42:46.749Z,10.46
2019-04-06T07:43:46.806Z,10.46
2019-04-06T07:44:46.958Z,10.57
2019-04-06T07:45:47.114Z,10.68
2019-04-06T07:46:48.332Z,10.69
2019-04-06T07:47:47.489Z,10.71
2019-04-06T07:48:47.678Z,10.83
2019-04-06T07:49:47.843Z,10.84
2019-04-06T07:50:48.012Z,10.90
2019-04-06T07:51:48.171Z,11.02
2019-04-06T07:52:48.535Z,11.25
2019-04-06T07:53:48.584Z,11.19
2019-04-06T07:54:48.719Z,11.13
2019-04-06T07:55:48.958Z,11.27
2019-04-06T07:56:49.134Z,11.40
2019-04-06T07:57:49.270Z,11.55
2019-04-06T07:58:50.308Z,11.63
2019-04-06T07:59:50.529Z,11.89
2019-04-06T08:00:49.774Z,11.81
2019-04-06T08:01:49.902Z,12.00
2019-04-06T08:02:50.074Z,11.97
2019-04-06T08:03:50.407Z,12.10
2019-04-06T08:04:50.394Z,12.08
2019-04-06T08:05:51.652Z,11.86
2019-04-06T08:06:50.760Z,12.15
2019-04-06T08:07:50.947Z,12.21
2019-04-06T08:08:51.162Z,12.43
2019-04-06T08:09:51.174Z,12.55
2019-04-06T08:10:51.448Z,12.78
2019-04-06T08:11:51.497Z,12.84
2019-04-06T08:12:51.763Z,13.01
2019-04-06T08:13:51.770Z,13.50
2019-04-06T08:14:51.931Z,13.75
2019-04-06T08:15:52.069Z,13.98
2019-04-06T08:16:52.227Z,14.20
2019-04-06T08:17:52.422Z,14.34
2019-04-06T08:18:52.577Z,14.19
2019-04-06T08:19:52.738Z,14.20
2019-04-06T08:20:52.947Z,14.19
2019-04-06T08:21:53.093Z,14.31
2019-04-06T08:22:53.231Z,14.25
2019-04-06T08:23:53.387Z,14.18
2019-04-06T08:24:53.566Z,14.28
2019-04-06T08:25:54.011Z,14.25
2019-04-06T08:26:53.912Z,14.20
2019-04-06T08:27:54.102Z,14.03
2019-04-06T08:29:00.125Z,13.98
2019-04-06T08:29:56.409Z,14.01
2019-04-06T08:30:54.552Z,14.07
2019-04-06T08:31:54.713Z,14.05
2019-04-06T08:32:54.863Z,13.97
2019-04-06T08:33:55.034Z,14.05
2019-04-06T08:34:55.213Z,14.19
2019-04-06T08:35:55.337Z,14.48
2019-04-06T08:36:55.778Z,14.52
2019-04-06T08:37:55.674Z,14.63
2019-04-06T08:38:55.930Z,14.62
2019-04-06T08:39:56.077Z,14.74
2019-04-06T08:40:56.112Z,14.70
2019-04-06T08:41:56.331Z,14.87
2019-04-06T08:42:56.529Z,14.99
2019-04-06T08:43:56.851Z,15.15
2019-04-06T08:44:56.877Z,15.35
2019-04-06T08:45:57.126Z,15.17
2019-04-06T08:46:57.166Z,15.02
2019-04-06T08:47:57.343Z,14.87
2019-04-06T08:48:57.508Z,15.43
2019-04-06T08:49:57.684Z,15.39
2019-04-06T08:50:57.893Z,15.05
2019-04-06T08:51:58.329Z,14.51
2019-04-06T08:52:58.268Z,14.44
2019-04-06T08:53:58.519Z,14.59
2019-04-06T08:54:58.567Z,14.59
2019-04-06T08:55:58.932Z,14.53
2019-04-06T08:56:58.861Z,14.31
2019-04-06T08:57:59.141Z,14.63
2019-04-06T08:59:10.180Z,15.00
2019-04-06T09:00:00.368Z,15.25
2019-04-06T09:01:00.529Z,15.52
2019-04-06T09:01:59.931Z,15.26
2019-04-06T09:02:59.883Z,14.99
2019-04-06T09:04:00.133Z,14.94
2019-04-06T09:05:00.207Z,14.78
2019-04-06T09:06:00.480Z,14.56
2019-04-06T09:07:00.614Z,14.31
2019-04-06T09:08:00.706Z,14.08
2019-04-06T09:09:00.951Z,14.07
2019-04-06T09:10:01.045Z,14.00
2019-04-06T09:11:01.596Z,14.11
2019-04-06T09:12:01.454Z,14.15
2019-04-06T09:13:01.659Z,14.15
2019-04-06T09:14:01.869Z,13.86
2019-04-06T09:15:02.091Z,13.58
2019-04-06T09:16:03.897Z,13.49
2019-04-06T09:17:03.367Z,13.30
2019-04-06T09:18:02.535Z,13.39
2019-04-06T09:19:03.728Z,13.60
2019-04-06T09:20:02.951Z,13.68
2019-04-06T09:21:03.160Z,13.95
2019-04-06T09:22:03.399Z,14.26
2019-04-06T09:23:03.589Z,14.41
2019-04-06T09:24:03.813Z,14.41
2019-04-06T09:25:04.247Z,14.40
2019-04-06T09:26:04.194Z,14.49
2019-04-06T09:27:04.421Z,14.73
2019-04-06T09:28:04.636Z,14.85
2019-04-06T09:29:04.840Z,14.93
2019-04-06T09:30:05.006Z,14.93
2019-04-06T09:31:05.346Z,14.71
2019-04-06T09:32:05.379Z,14.68
2019-04-06T09:33:05.573Z,14.59
2019-04-06T09:34:05.782Z,14.70
2019-04-06T09:35:06.043Z,14.70
2019-04-06T09:36:06.220Z,14.63
2019-04-06T09:37:06.266Z,14.63
2019-04-06T09:38:06.455Z,14.61
2019-04-06T09:39:06.638Z,14.56
2019-04-06T09:40:07.137Z,14.49
2019-04-06T09:41:07.045Z,14.40
2019-04-06T09:42:07.205Z,14.38
2019-04-06T09:43:07.398Z,14.37
2019-04-06T09:44:07.617Z,14.26
2019-04-06T09:45:07.783Z,14.37
2019-04-06T09:46:07.940Z,14.62
2019-04-06T09:47:08.106Z,14.61
2019-04-06T09:48:08.250Z,14.66
2019-04-06T09:49:08.439Z,14.79
2019-04-06T09:50:08.617Z,14.77
2019-04-06T09:51:08.838Z,14.63
2019-04-06T09:52:08.984Z,14.71
2019-04-06T09:53:09.152Z,14.55
2019-04-06T09:54:09.339Z,14.66
2019-04-06T09:55:09.500Z,14.79
2019-04-06T09:56:09.732Z,14.79
2019-04-06T09:57:09.918Z,14.90
2019-04-06T09:58:10.082Z,14.99
2019-04-06T09:59:10.271Z,15.32
2019-04-06T10:00:10.439Z,15.43
2019-04-06T10:01:10.664Z,15.51
2019-04-06T10:02:10.837Z,15.59
2019-04-06T10:03:11.099Z,15.60
2019-04-06T10:04:11.167Z,15.60
2019-04-06T10:05:11.300Z,15.57
2019-04-06T10:06:11.535Z,15.51
2019-04-06T10:07:11.994Z,15.47
2019-04-06T10:08:11.934Z,15.50
2019-04-06T10:09:12.090Z,15.63
2019-04-06T10:10:12.249Z,15.80
2019-04-06T10:11:12.647Z,15.78
2019-04-06T10:12:12.568Z,15.76
2019-04-06T10:13:12.782Z,15.65
2019-04-06T10:14:12.990Z,15.85
2019-04-06T10:15:13.154Z,15.99
2019-04-06T10:16:13.796Z,16.12
2019-04-06T10:17:13.624Z,16.18
2019-04-06T10:18:13.629Z,16.34
2019-04-06T10:19:13.803Z,16.47
2019-04-06T10:20:14.248Z,16.64
2019-04-06T10:21:14.189Z,16.62
2019-04-06T10:22:14.380Z,16.57
2019-04-06T10:23:14.691Z,16.18
2019-04-06T10:24:14.795Z,16.13
2019-04-06T10:25:14.963Z,16.34
2019-04-06T10:26:15.119Z,16.25
2019-04-06T10:27:15.290Z,16.10
2019-04-06T10:28:15.472Z,16.22
2019-04-06T10:29:15.973Z,16.21
2019-04-06T10:30:15.787Z,16.25
2019-04-06T10:31:15.965Z,16.37
2019-04-06T10:32:16.123Z,16.24
2019-04-06T10:33:16.351Z,16.51
2019-04-06T10:34:16.578Z,16.72
2019-04-06T10:35:16.805Z,16.61
2019-04-06T10:36:16.899Z,16.97
2019-04-06T10:37:17.070Z,17.14
2019-04-06T10:38:17.310Z,17.35
2019-04-06T10:39:17.514Z,18.45
2019-04-06T10:40:17.739Z,18.94
2019-04-06T10:41:17.945Z,18.61
2019-04-06T10:42:18.185Z,18.36
2019-04-06T10:43:18.381Z,18.27
2019-04-06T10:44:18.564Z,18.03
2019-04-06T10:45:18.806Z,17.65
2019-04-06T10:46:19.164Z,17.23
2019-04-06T10:47:19.062Z,17.16
2019-04-06T10:48:19.258Z,16.95
2019-04-06T10:49:19.581Z,16.59
2019-04-06T10:50:19.620Z,16.49
2019-04-06T10:51:19.842Z,16.54
2019-04-06T10:52:20.014Z,16.44
2019-04-06T10:53:20.238Z,16.36
2019-04-06T10:54:20.423Z,16.05
2019-04-06T10:55:20.617Z,16.02
2019-04-06T10:56:20.864Z,16.05
2019-04-06T10:57:22.056Z,15.96
2019-04-06T10:58:21.315Z,15.84
2019-04-06T10:59:21.522Z,15.85
2019-04-06T11:00:21.968Z,16.13
2019-04-06T11:01:21.847Z,16.64
2019-04-06T11:02:22.044Z,17.28
2019-04-06T11:03:22.247Z,17.65
2019-04-06T11:04:22.679Z,17.49
2019-04-06T11:05:23.074Z,17.72
2019-04-06T11:06:22.769Z,17.72
2019-04-06T11:07:23.510Z,17.56
2019-04-06T11:08:23.232Z,17.54
2019-04-06T11:09:23.489Z,18.83
2019-04-06T11:10:23.544Z,18.94
2019-04-06T11:11:23.890Z,18.55
2019-04-06T11:12:24.005Z,18.06
2019-04-06T11:13:24.179Z,17.38
2019-04-06T11:14:24.379Z,17.54
2019-04-06T11:15:24.573Z,17.72
2019-04-06T11:16:25.004Z,17.54
2019-04-06T11:17:24.903Z,17.31
2019-04-06T11:18:25.112Z,17.34
2019-04-06T11:19:25.292Z,17.17
2019-04-06T11:20:25.476Z,17.28
2019-04-06T11:21:26.646Z,17.54
2019-04-06T11:22:25.815Z,17.65
2019-04-06T11:23:26.266Z,17.65
2019-04-06T11:24:26.228Z,17.35
2019-04-06T11:25:26.546Z,17.20
2019-04-06T11:26:26.642Z,17.12
2019-04-06T11:27:26.822Z,16.82
2019-04-06T11:28:27.019Z,16.84
2019-04-06T11:29:27.192Z,16.86
2019-04-06T11:30:27.382Z,17.13
2019-04-06T11:31:27.844Z,17.32
2019-04-06T11:32:27.821Z,17.24
2019-04-06T11:33:27.913Z,17.13
2019-04-06T11:34:28.114Z,16.91
2019-04-06T11:35:28.287Z,16.79
2019-04-06T11:36:28.483Z,16.55
2019-04-06T11:37:28.892Z,16.50
2019-04-06T11:38:28.878Z,16.47
2019-04-06T11:39:29.052Z,16.61
2019-04-06T11:40:29.409Z,16.64
2019-04-06T11:41:29.377Z,16.51
2019-04-06T11:42:29.593Z,16.49
2019-04-06T11:43:29.758Z,16.44
2019-04-06T11:44:29.975Z,16.49
2019-04-06T11:45:30.281Z,16.68
2019-04-06T11:46:30.358Z,16.73
2019-04-06T11:47:30.577Z,16.49
2019-04-06T11:48:30.798Z,16.55
2019-04-06T11:49:31.030Z,16.49
2019-04-06T11:50:31.242Z,16.47
2019-04-06T11:51:31.449Z,16.62
2019-04-06T11:52:31.650Z,16.58
2019-04-06T11:53:31.993Z,16.73
2019-04-06T11:54:32.072Z,16.68
2019-04-06T11:55:32.305Z,16.47
2019-04-06T11:56:32.765Z,16.34
2019-04-06T11:57:32.927Z,16.25
2019-04-06T11:58:32.834Z,16.24
2019-04-06T11:59:33.929Z,16.43
2019-04-06T12:00:33.113Z,16.50
2019-04-06T12:01:33.637Z,16.82
2019-04-06T12:02:33.485Z,16.99
2019-04-06T12:03:34.093Z,16.92
2019-04-06T12:04:33.807Z,17.02
2019-04-06T12:05:34.390Z,17.23
2019-04-06T12:06:34.213Z,17.22
2019-04-06T12:07:34.407Z,17.19
2019-04-06T12:08:34.825Z,17.19
2019-04-06T12:09:36.153Z,17.04
2019-04-06T12:10:35.238Z,17.07
2019-04-06T12:11:35.202Z,17.02
2019-04-06T12:12:35.395Z,16.99
2019-04-06T12:13:35.587Z,17.14
2019-04-06T12:14:35.723Z,17.19
2019-04-06T12:15:35.867Z,17.22
2019-04-06T12:16:36.039Z,16.98
2019-04-06T12:17:36.291Z,16.91
2019-04-06T12:18:36.374Z,17.16
2019-04-06T12:19:36.546Z,17.17
2019-04-06T12:20:36.732Z,17.20
2019-04-06T12:21:36.980Z,17.19
2019-04-06T12:22:37.047Z,17.14
2019-04-06T12:23:37.363Z,17.66
2019-04-06T12:24:37.439Z,17.88
2019-04-06T12:25:37.661Z,17.59
2019-04-06T12:26:37.901Z,17.53
2019-04-06T12:27:38.062Z,18.49
2019-04-06T12:28:38.470Z,18.67
2019-04-06T12:29:38.593Z,19.42
2019-04-06T12:30:39.357Z,19.16
2019-04-06T12:31:39.665Z,19.30
2019-04-06T12:32:38.919Z,18.94
2019-04-06T12:33:38.949Z,19.22
2019-04-06T12:34:39.258Z,19.52
2019-04-06T12:35:39.503Z,19.12
2019-04-06T12:36:39.570Z,20.03
2019-04-06T12:37:39.765Z,20.26
2019-04-06T12:38:39.961Z,21.23
2019-04-06T12:39:51.409Z,22.00
2019-04-06T12:40:42.322Z,22.46
2019-04-06T12:41:40.750Z,22.25
2019-04-06T12:42:40.614Z,22.92
2019-04-06T12:43:40.801Z,23.23
2019-04-06T12:44:41.040Z,22.71
2019-04-06T12:45:41.317Z,22.77
2019-04-06T12:46:41.446Z,23.13
2019-04-06T12:47:41.907Z,22.91
2019-04-06T12:48:41.753Z,22.21
2019-04-06T12:49:42.026Z,21.04
2019-04-06T12:50:42.108Z,21.45
2019-04-06T12:51:42.405Z,21.38
2019-04-06T12:52:42.496Z,20.52
2019-04-06T12:53:42.931Z,20.12
2019-04-06T12:54:42.906Z,19.15
2019-04-06T12:55:43.122Z,18.79
2019-04-06T12:56:43.357Z,18.67
2019-04-06T12:57:43.683Z,18.26
2019-04-06T12:58:44.094Z,18.06
2019-04-06T12:59:43.916Z,18.18
2019-04-06T13:00:52.698Z,18.16
2019-04-06T13:01:46.400Z,18.26
2019-04-06T13:02:44.474Z,18.53
2019-04-06T13:03:44.952Z,18.49
2019-04-06T13:04:44.663Z,18.53
2019-04-06T13:05:44.871Z,18.27
2019-04-06T13:06:45.038Z,18.11
2019-04-06T13:07:45.520Z,18.03
2019-04-06T13:08:45.380Z,19.20
2019-04-06T13:09:45.450Z,19.16